Time;durP1;ratioP1;P1;durP2;ratioP2;P2;SDS_P1;SDS_P2;PMS_P1;PMS_P2;Temp;Humidity;BMP_temperature;BMP_pressure;BME280_temperature;BME280_humidity;BME280_pressure;Samples;Min_cycle;Max_cycle;Signal;HPM_P1;HPM_P2
2022/06/30 00:00:11;;;;;;;13.18;12.05;;;;;;;18.72;100.00;101026.44;5030246;28;20033;-59
2022/06/30 00:02:37;;;;;;;11.95;10.85;;;;;;;18.69;100.00;101032.53;5032631;28;20030;-59
2022/06/30 00:05:02;;;;;;;12.63;11.52;;;;;;;18.68;100.00;101020.31;5028119;28;20036;-58
2022/06/30 00:07:27;;;;;;;11.15;10.25;;;;;;;18.65;100.00;101024.69;5026086;28;20013;-59
2022/06/30 00:09:53;;;;;;;12.15;10.98;;;;;;;18.63;100.00;101022.06;5026278;28;20017;-59
2022/06/30 00:12:18;;;;;;;12.43;11.32;;;;;;;18.62;100.00;101014.19;5026713;28;20021;-59
2022/06/30 00:14:43;;;;;;;12.73;11.50;;;;;;;18.59;100.00;101018.56;5026053;28;20017;-59
2022/06/30 00:17:09;;;;;;;13.50;12.07;;;;;;;18.54;100.00;101011.53;5025911;28;20029;-59
2022/06/30 00:19:34;;;;;;;12.10;11.00;;;;;;;18.49;100.00;101011.53;5025677;28;20060;-59
2022/06/30 00:22:01;;;;;;;13.50;12.10;;;;;;;18.46;100.00;101009.78;5032961;28;20055;-59
2022/06/30 00:24:27;;;;;;;13.07;11.77;;;;;;;18.45;100.00;101002.78;5031209;28;20378;-59
2022/06/30 00:26:52;;;;;;;12.15;11.15;;;;;;;18.43;100.00;100999.28;5030436;28;20029;-59
2022/06/30 00:29:18;;;;;;;12.38;11.27;;;;;;;18.42;100.00;101001.91;5025430;28;20029;-58
2022/06/30 00:31:43;;;;;;;12.90;11.63;;;;;;;18.39;100.00;101004.50;5026740;28;20096;-58
2022/06/30 00:34:08;;;;;;;14.93;12.60;;;;;;;18.36;100.00;100998.41;5026848;28;20033;-59
2022/06/30 00:36:34;;;;;;;14.10;12.70;;;;;;;18.33;100.00;101000.16;5027317;28;20392;-58
2022/06/30 00:38:59;;;;;;;13.02;11.77;;;;;;;18.29;100.00;100993.13;5026255;28;20505;-58
2022/06/30 00:41:24;;;;;;;12.43;11.43;;;;;;;18.24;100.00;101001.84;5029876;28;20485;-59
2022/06/30 00:43:51;;;;;;;12.65;11.55;;;;;;;18.23;100.00;100994.88;5029197;28;20052;-58
2022/06/30 00:46:17;;;;;;;13.73;12.30;;;;;;;18.18;100.00;100994.00;5029486;28;20029;-58
2022/06/30 00:48:43;;;;;;;12.15;11.05;;;;;;;18.18;100.00;100999.22;5026732;28;20040;-59
2022/06/30 00:51:09;;;;;;;13.38;12.13;;;;;;;18.18;100.00;100995.72;5026639;28;20017;-58
2022/06/30 00:53:36;;;;;;;13.63;12.35;;;;;;;18.13;100.00;100993.06;5026322;28;20421;-59
2022/06/30 00:56:04;;;;;;;12.48;11.48;;;;;;;18.10;100.00;100999.16;5026585;28;20060;-59
2022/06/30 00:58:31;;;;;;;12.85;11.85;;;;;;;18.05;100.00;100997.41;5031762;28;20515;-58
2022/06/30 01:00:58;;;;;;;13.15;11.95;;;;;;;18.04;100.00;100998.28;5026076;28;20029;-58
2022/06/30 01:03:25;;;;;;;14.88;12.68;;;;;;;18.00;100.00;101013.13;5026929;28;20465;-59
2022/06/30 01:05:51;;;;;;;13.60;12.05;;;;;;;17.97;100.00;101003.47;5028884;28;20059;-58
2022/06/30 01:08:17;;;;;;;17.83;12.52;;;;;;;17.94;100.00;100998.25;5026923;28;20137;-58
2022/06/30 01:13:28;;;;;;;13.73;12.52;;;;;;;17.92;100.00;101007.84;5026390;28;20095;-58
2022/06/30 01:15:53;;;;;;;13.45;12.25;;;;;;;17.90;100.00;101000.84;5029986;28;20282;-58
2022/06/30 01:18:18;;;;;;;14.40;13.00;;;;;;;17.86;100.00;100997.34;5026578;28;20458;-58
2022/06/30 01:20:44;;;;;;;13.00;11.90;;;;;;;17.86;100.00;100999.97;5026596;28;20468;-58
2022/06/30 01:23:09;;;;;;;13.50;12.20;;;;;;;17.85;100.00;101003.44;5026297;28;20029;-59
2022/06/30 01:25:35;;;;;;;12.43;11.23;;;;;;;17.85;100.00;101011.28;5026052;28;20020;-58
2022/06/30 01:28:00;;;;;;;14.50;13.25;;;;;;;17.79;100.00;101006.03;5026020;28;20432;-58
2022/06/30 01:30:26;;;;;;;14.50;13.20;;;;;;;17.73;100.00;101007.78;5026382;28;20025;-59
2022/06/30 01:32:52;;;;;;;13.63;12.35;;;;;;;17.68;100.00;101003.38;5026821;28;20077;-59
2022/06/30 01:35:17;;;;;;;15.23;12.48;;;;;;;17.62;100.00;101005.09;5026332;28;20039;-58
2022/06/30 01:37:50;;;;;;;13.38;12.27;;;;;;;17.60;100.00;101011.19;5031582;28;20068;-58
2022/06/30 01:40:17;;;;;;;14.35;12.85;;;;;;;17.57;100.00;101021.66;5026198;28;20052;-59
2022/06/30 01:42:43;;;;;;;13.45;12.35;;;;;;;17.55;100.00;101023.38;5026096;28;20029;-58
2022/06/30 01:45:09;;;;;;;14.10;12.90;;;;;;;17.50;100.00;101016.38;5026434;28;20041;-58
2022/06/30 01:47:35;;;;;;;12.48;11.50;;;;;;;17.48;100.00;101022.47;5025463;28;20017;-59
2022/06/30 01:50:03;;;;;;;11.80;10.90;;;;;;;17.44;100.00;101021.56;5028991;28;20030;-58
2022/06/30 01:52:28;;;;;;;11.50;10.50;;;;;;;17.42;100.00;101023.31;5025997;28;20407;-58
2022/06/30 01:54:54;;;;;;;11.32;10.32;;;;;;;17.40;100.00;101025.91;5026069;28;20017;-59
2022/06/30 01:57:19;;;;;;;11.70;10.55;;;;;;;17.41;100.00;101026.81;5025980;28;20385;-58
2022/06/30 01:59:44;;;;;;;13.23;12.02;;;;;;;17.38;100.00;101021.53;5031370;28;20443;-57
2022/06/30 02:02:10;;;;;;;12.13;11.13;;;;;;;17.33;100.00;101020.63;5025686;28;20056;-58
2022/06/30 02:04:47;;;;;;;12.05;10.95;;;;;;;17.28;100.00;101026.72;5025510;28;20120;-58
2022/06/30 02:07:13;;;;;;;10.88;9.88;;;;;;;17.21;100.00;101030.16;5024870;28;20018;-58
2022/06/30 02:09:39;;;;;;;12.68;11.52;;;;;;;17.15;100.00;101019.63;5029914;28;20025;-59
2022/06/30 02:14:49;;;;;;;13.30;12.30;;;;;;;17.09;100.00;101019.56;5029135;28;20044;-58
2022/06/30 02:17:15;;;;;;;13.63;12.25;;;;;;;17.07;100.00;101029.16;5034720;28;20026;-58
2022/06/30 02:19:40;;;;;;;13.43;12.02;;;;;;;17.05;100.00;101026.50;5030122;28;20394;-58
2022/06/30 02:22:05;;;;;;;13.23;12.02;;;;;;;17.03;100.00;101023.91;5038047;28;20473;-58
2022/06/30 02:24:31;;;;;;;17.45;13.07;;;;;;;16.99;100.00;101029.97;5040252;28;20481;-58
2022/06/30 02:26:56;;;;;;;14.65;13.30;;;;;;;16.98;100.00;101028.19;5031814;28;20032;-59
2022/06/30 02:29:21;;;;;;;14.80;13.40;;;;;;;16.95;100.00;101030.78;5030159;28;20084;-58
2022/06/30 02:31:47;;;;;;;15.70;14.40;;;;;;;16.92;100.00;101033.38;5029922;28;20018;-58
2022/06/30 02:34:12;;;;;;;16.27;14.68;;;;;;;16.91;100.00;101026.38;5029332;28;20025;-58
2022/06/30 02:36:37;;;;;;;16.55;15.05;;;;;;;16.87;100.00;101025.50;5032236;28;20021;-57
2022/06/30 02:39:03;;;;;;;16.20;14.73;;;;;;;16.84;100.00;101027.22;5029268;28;20104;-58
2022/06/30 02:41:28;;;;;;;15.30;14.00;;;;;;;16.79;100.00;101022.81;5029533;28;20060;-58
2022/06/30 02:43:53;;;;;;;15.10;13.80;;;;;;;16.77;100.00;101039.34;5030062;28;20473;-57
2022/06/30 02:46:19;;;;;;;15.82;14.43;;;;;;;16.76;100.00;101035.88;5032082;28;20032;-58
2022/06/30 02:48:44;;;;;;;16.83;15.52;;;;;;;16.74;100.00;101024.50;5029140;28;20455;-59
2022/06/30 02:51:10;;;;;;;15.88;14.55;;;;;;;16.73;100.00;101022.72;5029471;28;20055;-59
2022/06/30 02:53:35;;;;;;;17.08;15.38;;;;;;;16.74;100.00;101029.75;5029276;28;20057;-58
2022/06/30 02:56:01;;;;;;;16.00;14.65;;;;;;;16.73;100.00;101022.72;5030973;28;20520;-58
2022/06/30 02:58:26;;;;;;;15.90;14.52;;;;;;;16.73;100.00;101019.25;5027152;28;20078;-58
2022/06/30 03:00:51;;;;;;;16.73;15.43;;;;;;;16.70;100.00;101035.78;5032449;28;20108;-58
2022/06/30 03:03:17;;;;;;;16.77;15.38;;;;;;;16.66;100.00;101026.16;5028977;28;20021;-59
2022/06/30 03:05:42;;;;;;;17.17;15.73;;;;;;;16.65;100.00;101022.69;5028964;28;20469;-58
2022/06/30 03:08:07;;;;;;;15.93;14.63;;;;;;;16.62;100.00;101024.41;5028325;28;20053;-57
2022/06/30 03:10:33;;;;;;;16.13;14.65;;;;;;;16.59;100.00;101024.34;5028005;28;20490;-58
2022/06/30 03:12:58;;;;;;;17.80;16.10;;;;;;;16.55;100.00;101028.66;5027070;28;20493;-57
2022/06/30 03:15:23;;;;;;;16.92;15.32;;;;;;;16.52;100.00;101024.28;5027585;28;20450;-58
2022/06/30 03:17:49;;;;;;;16.70;15.27;;;;;;;16.48;100.00;101014.66;5026962;28;20029;-58
2022/06/30 03:20:14;;;;;;;18.35;16.65;;;;;;;16.46;100.00;101013.75;5028557;28;20284;-59
2022/06/30 03:22:39;;;;;;;17.70;16.20;;;;;;;16.42;100.00;101015.47;5029769;28;20028;-58
2022/06/30 03:25:05;;;;;;;19.52;17.65;;;;;;;16.38;100.00;101025.88;5026813;28;20108;-58
2022/06/30 03:27:31;;;;;;;19.05;17.45;;;;;;;16.31;100.00;101010.16;5029090;28;20021;-58
2022/06/30 03:29:57;;;;;;;19.60;17.77;;;;;;;16.27;100.00;101010.97;5027870;28;20120;-58
2022/06/30 03:32:22;;;;;;;18.63;17.00;;;;;;;16.24;100.00;101018.78;5030792;28;20108;-58
2022/06/30 03:34:48;;;;;;;18.40;16.90;;;;;;;16.21;100.00;101013.50;5028335;28;20025;-58
2022/06/30 03:37:13;;;;;;;17.85;16.13;;;;;;;16.17;100.00;101011.72;5033455;28;20021;-58
2022/06/30 03:39:38;;;;;;;20.00;18.23;;;;;;;16.16;100.00;101004.72;5031550;28;20358;-56
2022/06/30 03:42:04;;;;;;;18.17;16.52;;;;;;;16.15;100.00;101008.22;5028514;28;20025;-58
2022/06/30 03:44:29;;;;;;;20.80;18.92;;;;;;;16.12;100.00;101003.81;5029898;28;20013;-58
2022/06/30 03:46:56;;;;;;;19.70;17.90;;;;;;;16.13;100.00;101007.31;5027821;28;20397;-57
2022/06/30 03:49:22;;;;;;;19.40;17.50;;;;;;;16.10;100.00;101004.66;5028075;28;20484;-56
2022/06/30 03:51:47;;;;;;;19.27;17.50;;;;;;;16.10;100.00;101005.53;5028661;28;20071;-57
2022/06/30 03:54:12;;;;;;;18.77;16.95;;;;;;;16.12;100.00;101000.34;5028150;28;20045;-57
2022/06/30 03:56:38;;;;;;;17.42;15.95;;;;;;;16.15;100.00;100997.75;5026568;28;20030;-58
2022/06/30 03:59:03;;;;;;;18.58;16.98;;;;;;;16.14;100.00;100999.47;5026854;28;20398;-58
2022/06/30 04:01:28;;;;;;;19.27;17.65;;;;;;;16.13;100.00;100999.47;5030353;28;20147;-58
2022/06/30 04:03:54;;;;;;;19.33;17.52;;;;;;;16.10;100.00;100994.22;5028578;28;20092;-59
2022/06/30 04:06:19;;;;;;;17.92;16.42;;;;;;;16.08;100.00;100992.44;5027399;28;20492;-58
2022/06/30 04:08:44;;;;;;;19.45;17.75;;;;;;;16.06;100.00;100994.16;5031284;28;20163;-58
2022/06/30 04:11:10;;;;;;;19.33;17.65;;;;;;;16.05;100.00;100992.41;5027297;28;20029;-59
2022/06/30 04:13:35;;;;;;;19.50;17.55;;;;;;;16.04;100.00;100995.91;5031202;28;20021;-58
2022/06/30 04:16:00;;;;;;;20.25;18.45;;;;;;;16.04;100.00;100995.00;5030603;28;20036;-59
2022/06/30 04:18:26;;;;;;;20.00;17.95;;;;;;;16.05;100.00;100991.53;5027027;28;20393;-59
2022/06/30 04:20:51;;;;;;;19.17;17.65;;;;;;;16.08;100.00;100989.81;5029722;28;20025;-58
2022/06/30 04:23:17;;;;;;;19.10;17.27;;;;;;;16.13;100.00;100994.25;5027484;28;20036;-59
2022/06/30 04:25:42;;;;;;;19.35;17.63;;;;;;;16.18;100.00;100996.06;5027944;28;20144;-59
2022/06/30 04:28:07;;;;;;;19.83;17.90;;;;;;;16.22;100.00;100994.34;5025925;28;20037;-59
2022/06/30 04:33:17;;;;;;;19.30;17.70;;;;;;;16.31;100.00;101004.91;5024470;28;20036;-59
2022/06/30 04:35:42;;;;;;;18.58;16.98;;;;;;;16.38;100.00;101015.41;5027746;28;20013;-58
2022/06/30 04:38:07;;;;;;;18.15;16.60;;;;;;;16.42;100.00;101009.38;5027789;28;20029;-59
2022/06/30 04:43:17;;;;;;;17.85;16.15;;;;;;;16.56;100.00;101019.97;5039285;28;20062;-58
2022/06/30 04:45:42;;;;;;;19.02;17.33;;;;;;;16.63;100.00;101036.59;5043959;28;20014;-59
2022/06/30 04:48:08;;;;;;;19.27;17.42;;;;;;;16.70;100.00;101054.13;5027835;28;20018;-59
2022/06/30 04:50:33;;;;;;;17.83;16.05;;;;;;;16.77;100.00;101008.84;5026876;28;20494;-59
2022/06/30 04:52:58;;;;;;;17.83;16.13;;;;;;;16.86;100.00;101030.69;5026902;28;20055;-59
2022/06/30 04:55:24;;;;;;;15.57;14.02;;;;;;;16.92;100.00;101049.97;5022475;28;20057;-60
2022/06/30 04:57:49;;;;;;;15.13;13.73;;;;;;;17.00;100.00;101036.94;5029802;28;20105;-60
2022/06/30 05:00:15;;;;;;;14.52;13.07;;;;;;;17.08;100.00;101054.44;5027095;28;20036;-60
2022/06/30 05:02:40;;;;;;;14.77;13.25;;;;;;;17.13;100.00;101047.53;5036572;28;20024;-59
2022/06/30 05:05:06;;;;;;;14.50;13.18;;;;;;;17.20;100.00;101049.34;5027336;28;20030;-60
2022/06/30 05:07:31;;;;;;;15.80;14.35;;;;;;;17.24;100.00;101056.38;5025275;28;20022;-59
2022/06/30 05:09:57;;;;;;;15.52;14.23;;;;;;;17.23;100.00;101049.38;5026745;28;20033;-59
2022/06/30 05:12:22;;;;;;;17.88;16.17;;;;;;;17.30;100.00;101049.41;5024970;28;20145;-59
2022/06/30 05:14:48;;;;;;;20.30;18.35;;;;;;;17.33;100.00;101052.94;5024652;28;20057;-58
2022/06/30 05:17:13;;;;;;;18.65;17.05;;;;;;;17.40;100.00;101048.59;5026908;28;20099;-60
2022/06/30 05:19:38;;;;;;;20.20;18.60;;;;;;;17.43;100.00;101040.75;5023586;28;20136;-60
2022/06/30 05:22:04;;;;;;;19.17;17.60;;;;;;;17.50;100.00;101045.19;5026225;28;20111;-59
2022/06/30 05:27:13;;;;;;;19.58;17.80;;;;;;;17.62;100.00;101048.75;5027358;28;20469;-60
2022/06/30 05:29:39;;;;;;;21.08;19.15;;;;;;;17.67;100.00;101049.66;5026399;28;20044;-60
2022/06/30 05:32:05;;;;;;;23.10;21.20;;;;;;;17.63;100.00;101055.72;5033527;28;20127;-58
2022/06/30 05:34:30;;;;;;;22.13;20.33;;;;;;;17.62;100.00;101047.03;5025209;28;20270;-59
2022/06/30 05:36:55;;;;;;;23.85;21.45;;;;;;;17.60;100.00;101055.72;5026512;28;20033;-58
2022/06/30 05:39:21;;;;;;;24.23;21.98;;;;;;;17.62;100.00;101046.13;5026749;28;20040;-60
2022/06/30 05:41:46;;;;;;;25.08;22.67;;;;;;;17.65;100.00;101046.13;5032014;28;20044;-60
2022/06/30 05:44:11;;;;;;;23.73;21.58;;;;;;;17.74;100.00;101054.06;5030432;28;20496;-60
2022/06/30 05:46:37;;;;;;;24.17;22.08;;;;;;;17.82;100.00;101054.13;5031186;28;20373;-60
2022/06/30 05:49:03;;;;;;;24.83;22.60;;;;;;;17.91;100.00;101036.66;5029880;28;20104;-60
2022/06/30 05:51:28;;;;;;;23.70;21.48;;;;;;;18.03;100.00;101046.31;5029970;28;20646;-60
2022/06/30 05:53:53;;;;;;;23.40;21.30;;;;;;;18.15;100.00;101048.16;5028902;28;20049;-61
2022/06/30 05:56:19;;;;;;;23.52;21.52;;;;;;;18.26;100.00;101059.56;5028952;28;20384;-60
2022/06/30 05:58:45;;;;;;;22.77;20.77;;;;;;;18.35;100.00;101050.84;5029531;28;20095;-60
2022/06/30 06:01:11;;;;;;;22.25;19.65;;;;;;;18.41;100.00;101048.25;5029112;28;20057;-60
2022/06/30 06:03:36;;;;;;;21.52;19.48;;;;;;;18.48;100.00;101046.50;5028421;28;20289;-60
2022/06/30 06:06:02;;;;;;;20.15;17.52;;;;;;;18.54;100.00;101045.66;5028751;28;20025;-60
2022/06/30 06:08:27;;;;;;;18.70;17.20;;;;;;;18.60;100.00;101050.94;5033883;28;20485;-60
2022/06/30 06:10:53;;;;;;;17.02;15.35;;;;;;;18.70;100.00;101046.56;5032684;28;20048;-60
2022/06/30 06:13:18;;;;;;;15.80;14.23;;;;;;;18.76;99.45;101046.56;5040831;28;20114;-60
2022/06/30 06:15:44;;;;;;;16.13;13.73;;;;;;;18.82;99.70;101050.94;5046108;28;20020;-60
2022/06/30 06:18:09;;;;;;;15.23;13.48;;;;;;;18.81;99.20;101062.31;5045056;28;20044;-61
2022/06/30 06:20:34;;;;;;;15.00;13.55;;;;;;;18.88;99.42;101064.06;5038335;28;20018;-59
2022/06/30 06:22:59;;;;;;;14.32;13.02;;;;;;;18.95;97.88;101057.94;5027397;28;20032;-60
2022/06/30 06:25:25;;;;;;;14.73;13.45;;;;;;;19.04;97.11;101069.31;5028623;28;20025;-59
2022/06/30 06:30:35;;;;;;;13.70;12.38;;;;;;;19.19;96.18;101069.34;5023511;28;20125;-59
2022/06/30 06:33:00;;;;;;;13.07;11.98;;;;;;;19.28;95.63;101067.59;5029401;28;20025;-59
2022/06/30 06:35:26;;;;;;;13.27;11.95;;;;;;;19.37;95.06;101072.88;5027385;28;20381;-59
2022/06/30 06:37:51;;;;;;;13.48;12.18;;;;;;;19.49;94.73;101071.06;5026098;28;20067;-59
2022/06/30 06:40:17;;;;;;;13.85;12.65;;;;;;;19.59;95.76;101078.06;5026083;28;20543;-59
2022/06/30 06:42:42;;;;;;;14.27;13.05;;;;;;;19.67;94.54;101072.78;5027252;28;20025;-59
2022/06/30 06:45:08;;;;;;;12.38;11.25;;;;;;;19.71;94.51;101081.56;5023709;28;20037;-58
2022/06/30 06:47:33;;;;;;;12.70;11.02;;;;;;;19.78;93.42;101086.81;5029893;28;20017;-60
2022/06/30 06:49:59;;;;;;;13.50;12.07;;;;;;;19.84;93.09;101072.75;5024303;28;20270;-60
2022/06/30 06:52:26;;;;;;;12.13;10.70;;;;;;;19.94;92.33;101080.59;5026218;28;20059;-59
2022/06/30 06:54:52;;;;;;;10.80;9.75;;;;;;;20.06;92.41;101085.84;5028056;28;20540;-58
2022/06/30 06:57:17;;;;;;;11.00;9.88;;;;;;;20.19;91.46;101086.69;5025817;28;20275;-59
2022/06/30 06:59:42;;;;;;;11.27;10.10;;;;;;;20.32;91.36;101084.88;5023329;28;20032;-59
2022/06/30 07:02:08;;;;;;;10.32;9.25;;;;;;;20.46;91.73;101083.91;5027230;28;20440;-59
2022/06/30 07:04:33;;;;;;;9.90;9.00;;;;;;;20.56;89.38;101090.88;5027136;28;20025;-60
2022/06/30 07:06:59;;;;;;;14.40;11.07;;;;;;;20.61;89.00;101091.75;5028108;28;20093;-59
2022/06/30 07:09:24;;;;;;;10.43;9.38;;;;;;;20.67;88.83;101092.59;5027849;28;20489;-59
2022/06/30 07:11:49;;;;;;;10.60;9.50;;;;;;;20.78;88.53;101092.53;5027080;28;20014;-59
2022/06/30 07:14:15;;;;;;;10.25;8.70;;;;;;;20.91;88.80;101112.59;5026135;28;20034;-59
2022/06/30 07:16:40;;;;;;;10.02;9.00;;;;;;;21.04;88.88;101105.53;5026514;28;20553;-59
2022/06/30 07:19:05;;;;;;;11.38;9.48;;;;;;;21.15;88.02;101112.47;5027093;28;20013;-59
2022/06/30 07:21:31;;;;;;;13.95;9.10;;;;;;;21.26;87.39;101113.25;5031014;28;20140;-59
2022/06/30 07:23:56;;;;;;;9.48;8.25;;;;;;;21.33;86.79;101116.72;5026725;28;20017;-59
2022/06/30 07:26:21;;;;;;;10.85;8.57;;;;;;;21.41;85.37;101119.25;5020500;28;20056;-59
2022/06/30 07:28:47;;;;;;;11.07;8.25;;;;;;;21.47;85.31;101129.75;5027051;28;20017;-58
2022/06/30 07:31:14;;;;;;;10.55;9.00;;;;;;;21.57;84.31;101120.88;5026837;28;20030;-59
2022/06/30 07:33:40;;;;;;;14.35;9.43;;;;;;;21.62;84.30;101119.97;5027080;28;20036;-59
2022/06/30 07:36:06;;;;;;;11.93;8.68;;;;;;;21.58;84.49;101122.63;5044443;28;20109;-59
2022/06/30 07:38:31;;;;;;;8.70;7.38;;;;;;;21.71;83.59;101117.25;5013394;28;20066;-58
2022/06/30 07:40:57;;;;;;;11.52;9.07;;;;;;;21.68;82.54;101123.41;5027785;28;20104;-60
2022/06/30 07:43:22;;;;;;;13.88;8.73;;;;;;;21.69;81.88;101114.63;5026740;28;20518;-58
2022/06/30 07:45:47;;;;;;;10.57;7.75;;;;;;;21.84;83.19;101120.63;5025753;28;20476;-59
2022/06/30 07:48:13;;;;;;;9.15;7.25;;;;;;;21.95;81.87;101129.31;5027456;28;20086;-59
2022/06/30 07:50:39;;;;;;;9.85;7.63;;;;;;;21.98;81.37;101128.41;5028103;28;20061;-58
2022/06/30 07:53:04;;;;;;;13.50;8.77;;;;;;;21.91;80.09;101135.50;5028076;28;20045;-59
2022/06/30 07:55:30;;;;;;;9.02;7.30;;;;;;;22.09;81.73;101137.97;5028418;28;20064;-59
2022/06/30 07:57:55;;;;;;;11.27;5.97;;;;;;;22.28;82.45;101134.22;5028705;28;20037;-59
2022/06/30 08:00:24;;;;;;;10.00;6.38;;;;;;;22.46;81.70;101137.50;5027869;28;20428;-59
2022/06/30 08:02:50;;;;;;;16.35;7.28;;;;;;;22.61;81.16;101135.56;5027739;28;20083;-59
2022/06/30 08:05:15;;;;;;;13.88;7.07;;;;;;;22.78;78.86;101133.56;5026544;28;20060;-59
2022/06/30 08:07:41;;;;;;;14.27;7.18;;;;;;;23.00;81.44;101127.09;5027754;28;20413;-59
2022/06/30 08:10:07;;;;;;;8.80;6.18;;;;;;;23.19;79.29;101122.38;5028082;28;20285;-58
2022/06/30 08:12:34;;;;;;;8.88;6.68;;;;;;;23.30;76.90;101119.53;5028017;28;20436;-59
2022/06/30 08:14:59;;;;;;;10.40;7.85;;;;;;;23.21;75.14;101119.69;5027209;28;20549;-59
2022/06/30 08:17:25;;;;;;;12.18;6.22;;;;;;;23.24;77.62;101119.66;5027619;28;20026;-59
2022/06/30 08:19:50;;;;;;;9.85;7.25;;;;;;;23.39;76.28;101122.03;5027245;28;20574;-58
2022/06/30 08:22:16;;;;;;;9.25;6.03;;;;;;;23.47;77.65;101121.94;5027703;28;20025;-59
2022/06/30 08:24:41;;;;;;;7.13;5.53;;;;;;;23.63;78.45;101119.91;5026768;28;20036;-59
2022/06/30 08:27:06;;;;;;;10.10;5.60;;;;;;;23.83;72.51;101123.06;5026223;28;20021;-59
2022/06/30 08:29:35;;;;;;;6.60;5.00;;;;;;;23.98;71.91;101121.88;5020235;28;20040;-59
2022/06/30 08:32:01;;;;;;;8.82;4.50;;;;;;;24.18;70.64;101131.16;5024412;28;20026;-59
2022/06/30 08:34:27;;;;;;;8.60;5.30;;;;;;;24.29;68.69;101128.34;5020391;28;20393;-59
2022/06/30 08:36:53;;;;;;;5.93;4.40;;;;;;;24.36;69.88;101127.31;5025410;28;20036;-59
2022/06/30 08:42:02;;;;;;;9.75;4.85;;;;;;;24.54;66.94;101125.16;5026203;28;20068;-58
2022/06/30 08:44:31;;;;;;;10.52;4.60;;;;;;;24.55;66.34;101126.91;5025545;28;20061;-59
2022/06/30 08:46:58;;;;;;;5.85;4.03;;;;;;;24.37;68.11;101128.19;5028095;28;20128;-58
2022/06/30 08:49:23;;;;;;;11.38;4.13;;;;;;;24.56;69.35;101124.22;5027422;28;20468;-59
2022/06/30 08:51:51;;;;;;;5.53;3.83;;;;;;;24.69;67.11;101127.47;5027802;28;20021;-59
2022/06/30 08:54:19;;;;;;;9.23;4.13;;;;;;;24.87;66.38;101122.66;5027644;28;20060;-60
2022/06/30 08:56:46;;;;;;;7.22;4.53;;;;;;;24.99;65.95;101123.31;5029183;28;20594;-59
2022/06/30 08:59:11;;;;;;;6.20;3.53;;;;;;;25.12;69.40;101122.06;5042116;28;20052;-60
2022/06/30 09:01:37;;;;;;;7.65;3.50;;;;;;;25.26;66.88;101126.16;5043861;28;20021;-59
2022/06/30 09:04:02;;;;;;;8.10;4.72;;;;;;;25.36;65.49;101135.63;5044878;28;20088;-60
2022/06/30 09:06:28;;;;;;;6.57;3.63;;;;;;;25.45;65.85;101133.63;5034756;28;20037;-60
2022/06/30 09:08:54;;;;;;;5.43;3.15;;;;;;;25.56;66.59;101131.59;5027134;28;20018;-59
2022/06/30 09:11:19;;;;;;;5.40;3.85;;;;;;;25.49;64.83;101119.41;5030766;28;20037;-59
2022/06/30 09:13:48;;;;;;;6.15;3.17;;;;;;;25.56;66.04;101126.28;5037707;28;20021;-59
2022/06/30 09:16:14;;;;;;;8.43;3.70;;;;;;;25.50;62.67;101126.44;5026194;28;20029;-59
2022/06/30 09:18:39;;;;;;;6.07;4.15;;;;;;;25.61;63.25;101129.69;5025981;28;20044;-59
2022/06/30 09:21:17;;;;;;;7.03;3.45;;;;;;;25.72;62.32;101136.50;5038219;28;20110;-59
2022/06/30 09:23:44;;;;;;;6.50;4.03;;;;;;;25.68;62.22;101133.06;5042958;28;20433;-58
2022/06/30 09:26:18;;;;;;;9.23;3.90;;;;;;;25.70;62.13;101133.91;5043313;28;20148;-59
2022/06/30 09:28:50;;;;;;;6.65;3.72;;;;;;;25.64;61.25;101132.25;5032775;28;20385;-59
2022/06/30 09:31:31;;;;;;;5.57;3.30;;;;;;;25.63;62.07;101133.16;5038591;28;20028;-59
2022/06/30 09:34:20;;;;;;;6.38;3.60;;;;;;;25.69;62.73;101131.28;5026866;28;20289;-60
2022/06/30 09:36:50;;;;;;;4.45;3.35;;;;;;;25.80;61.93;101131.84;5026809;28;20033;-59
2022/06/30 09:39:17;;;;;;;;;;;;;;;25.78;61.42;101138.97;5026818;28;20107;-59
2022/06/30 09:41:44;;;;;;;5.32;2.85;;;;;;;25.99;62.30;101139.31;5026946;28;19913;-59
2022/06/30 09:44:15;;;;;;;6.05;3.10;;;;;;;26.16;64.39;101140.59;5026713;28;20500;-60
2022/06/30 09:46:58;;;;;;;8.50;3.50;;;;;;;26.23;62.89;101136.81;5031791;28;20048;-60
2022/06/30 09:49:31;;;;;;;8.98;4.30;;;;;;;26.26;63.52;101139.41;5021943;28;20025;-60
2022/06/30 09:51:57;;;;;;;8.07;4.38;;;;;;;26.33;62.70;101134.78;5028881;28;20044;-60
2022/06/30 09:54:22;;;;;;;5.88;3.63;;;;;;;26.45;61.63;101144.19;5025785;28;20054;-59
2022/06/30 09:57:06;;;;;;;6.30;3.60;;;;;;;26.50;61.44;101140.47;5040511;28;20038;-60
2022/06/30 09:59:35;;;;;;;6.45;4.00;;;;;;;26.42;60.69;101149.59;5026961;28;20080;-60
2022/06/30 10:02:06;;;;;;;6.85;3.15;;;;;;;26.32;62.39;101146.34;5027386;28;20022;-60
2022/06/30 10:04:31;;;;;;;5.05;3.72;;;;;;;26.28;61.99;101150.88;5027072;28;20289;-59
2022/06/30 10:06:57;;;;;;;7.40;3.65;;;;;;;26.21;62.22;101151.97;5026397;28;20056;-60
2022/06/30 10:09:25;;;;;;;9.75;3.67;;;;;;;26.01;63.54;101153.41;5027209;28;20052;-58
2022/06/30 10:11:52;;;;;;;6.65;4.30;;;;;;;26.04;62.17;101157.75;5026370;28;20473;-60
2022/06/30 10:14:18;;;;;;;9.27;4.20;;;;;;;26.03;62.14;101148.91;5026301;28;20534;-59
2022/06/30 10:16:44;;;;;;;5.82;3.30;;;;;;;26.16;63.65;101156.53;5025176;28;20025;-60
2022/06/30 10:19:11;;;;;;;7.35;3.35;;;;;;;26.21;63.15;101159.94;5026642;28;20037;-59
2022/06/30 10:21:37;;;;;;;6.35;3.13;;;;;;;26.14;62.93;101153.91;5026292;28;20105;-59
2022/06/30 10:24:05;;;;;;;5.50;2.75;;;;;;;26.17;61.89;101158.25;5036159;28;20017;-59
2022/06/30 10:29:16;;;;;;;6.43;3.60;;;;;;;26.44;61.82;101138.03;5020017;28;20072;-59
2022/06/30 10:31:54;;;;;;;5.55;3.22;;;;;;;26.59;61.03;101126.03;5026821;28;20064;-59
2022/06/30 10:34:24;;;;;;;7.30;3.47;;;;;;;26.68;60.49;101129.34;5029813;28;20124;-59
2022/06/30 10:37:07;;;;;;;8.23;3.67;;;;;;;26.64;58.52;101135.66;5034764;28;20033;-60
2022/06/30 10:39:58;;;;;;;9.65;3.35;;;;;;;26.47;57.84;101139.72;5030467;28;20051;-58
2022/06/30 10:42:44;;;;;;;2.85;2.20;;;;;;;26.17;58.43;101131.72;5026376;28;20071;-59
2022/06/30 10:45:52;;;;;;;6.88;3.13;;;;;;;26.16;59.43;101136.16;5029883;28;20029;-59
2022/06/30 10:48:17;;;;;;;6.70;3.63;;;;;;;26.21;55.97;101136.88;5023020;28;20024;-59
2022/06/30 10:50:43;;;;;;;4.75;3.33;;;;;;;26.23;63.04;101134.19;5033644;28;20028;-59
2022/06/30 10:53:38;;;;;;;3.35;2.22;;;;;;;26.53;61.84;101128.91;5048025;28;20412;-59
2022/06/30 10:56:04;;;;;;;6.15;3.08;;;;;;;26.79;61.50;101134.28;5042722;28;20025;-59
2022/06/30 10:58:30;;;;;;;4.72;2.60;;;;;;;26.89;58.40;101130.44;5040258;28;20056;-59
2022/06/30 11:00:55;;;;;;;4.25;2.50;;;;;;;27.09;58.50;101124.50;5044953;28;20025;-58
2022/06/30 11:03:29;;;;;;;4.43;2.70;;;;;;;27.31;58.59;101131.75;5046870;28;20570;-59
2022/06/30 11:05:56;;;;;;;4.63;2.80;;;;;;;27.36;55.63;101128.94;5042833;28;20465;-59
2022/06/30 11:08:37;;;;;;;4.35;2.55;;;;;;;27.18;54.59;101127.78;5044830;28;20472;-59
2022/06/30 11:11:24;;;;;;;5.75;2.42;;;;;;;26.89;56.27;101126.91;5045935;28;20415;-59
2022/06/30 11:13:50;;;;;;;4.85;2.70;;;;;;;26.63;57.79;101134.78;5039825;28;20055;-59
2022/06/30 11:16:18;;;;;;;6.80;2.30;;;;;;;26.47;55.89;101134.41;5039410;28;20021;-59
2022/06/30 11:18:43;;;;;;;2.45;2.00;;;;;;;26.34;57.28;101134.72;5047936;28;20024;-60
2022/06/30 11:21:08;;;;;;;6.00;1.92;;;;;;;26.44;58.62;101115.91;5041126;28;20062;-60
2022/06/30 11:23:46;;;;;;;4.57;2.22;;;;;;;26.57;57.73;101119.06;5041220;28;20151;-60
2022/06/30 11:28:59;;;;;;;5.07;2.38;;;;;;;26.41;55.77;101113.34;5046977;28;20072;-59
2022/06/30 11:31:36;;;;;;;4.90;1.70;;;;;;;26.23;58.28;101121.78;5043999;28;20020;-59
2022/06/30 11:34:08;;;;;;;4.47;2.15;;;;;;;26.06;59.48;101116.97;5042989;28;20031;-60